Wilmington International Airport
KILM : rendu visible

Aérodrome :











RETROUVEZ-NOUS SUR...

 
LOGIN :

S'inscrire | Disclaimer

   EN    FR    IT 

 









Légende :    VFR   VFR Marginal   IFR   IFR Intensif   IFR Très Intensif
Visi : 
Plafond : 
>= 8 km
>= 3000ft
5 à 8 km
1000 à 3000 ft
1500m à 5 km
500 à 1000 ft
800 à 1500m
200 à 500 ft
< 800m
< 200 ft
Symboles :   Orages  Brouillard  Fortes neiges  Fortes précipitations  Vent > 20 kt






- Altitude de l'aérodrome : 32 ft
- Code IATA : ILM


KILM - Wilmington International

DERNIER METAR :
  • 260153Z 11007KT 10SM BKN016 21/18 A3013 RMK AO2 SLP202 T02110183

METARs EXPIRÉS :
  • 260127Z 10004KT 10SM OVC015 21/18 A3013 RMK AO2 T02110183
  • 260105Z 12006KT 10SM BKN014 21/18 A3012 RMK AO2 T02110183
  • 260053Z 11005KT 10SM SCT014 21/18 A3011 RMK AO2 SLP196 T02110183
  • 252353Z 10006KT 10SM CLR 22/18 A3011 RMK AO2 SLP194 T02170183 10250 20217 55003

TAF KILM
Valide du 26 à 02h jusqu'au 27 à 00h UTC


260207Z 2602/2624 08005KT P6SM SCT020 BKN250
TEMPO 2602/2606 BKN020
FM261000 04007KT P6SM BKN020
FM261900 08010KT P6SM BKN030
FIR KZDC / Amérique du Nord



MET'MAP, la Météo Aéronautique d'un coup d'oeil ! - Copyright ORBIFLY Décembre 2007 - Disclaimer

ORBIFLY MET'MAP TEAM :

Programmation & Développement : Alexandra Zaïnal
Sur une idée originale de : Baudouin d'Aumeries
Assistance à la programmation : Marc-Olivier Méhu
Soutien technique & logistique : Manuel Goepfert

Contact : metmap@orbifly.com




SOURCES & CREDITS :

   NOAA       Earth
Advisory